Home > Products > Valid Products > TAF

000
FTUS45 KLKN 261720
TAFEKO
TAF
KEKO 261720Z 2618/2718 31014G25KT P6SM FEW070 SCT120
     FM270200 VRB04KT P6SM SKC
     FM271500 05005KT P6SM SCT250=



000
FTUS45 KLKN 261720
TAFTPH
TAF
KTPH 261720Z 2618/2718 33020G35KT P6SM FEW050 SCT250
     FM270500 36015KT P6SM FEW250
     FM271400 35020G30KT P6SM SCT250=



000
FTUS45 KLKN 261720
TAFWMC
TAF
KWMC 261720Z 2618/2718 31012G22KT P6SM FEW050 SCT080
     FM270200 02008KT P6SM FEW250
     FM271500 06007KT P6SM SCT250=



000
FTUS45 KLKN 261720
TAFELY
TAF
KELY 261720Z 2618/2718 35017G28KT P6SM SCT060 SCT150
     FM270300 35008KT P6SM SKC
     FM271530 02010KT P6SM SKC=



000
FTUS45 KLKN 261720
TAFTPH
TAF
KTPH 261720Z 2618/2718 33020G35KT P6SM FEW050 SCT250
     FM270500 36015KT P6SM FEW250
     FM271400 35020G30KT P6SM SCT250=



000
FTUS45 KLKN 261720
TAFELY
TAF
KELY 261720Z 2618/2718 35017G28KT P6SM SCT060 SCT150
     FM270300 35008KT P6SM SKC
     FM271530 02010KT P6SM SKC=



000
FTUS45 KLKN 261720
TAFWMC
TAF
KWMC 261720Z 2618/2718 31012G22KT P6SM FEW050 SCT080
     FM270200 02008KT P6SM FEW250
     FM271500 06007KT P6SM SCT250=



000
FTUS45 KLKN 261720
TAFEKO
TAF
KEKO 261720Z 2618/2718 31014G25KT P6SM FEW070 SCT120
     FM270200 VRB04KT P6SM SKC
     FM271500 05005KT P6SM SCT250=



000
FTUS45 KLKN 261720
TAFEKO
TAF
KEKO 261720Z 2618/2718 31014G25KT P6SM FEW070 SCT120
     FM270200 VRB04KT P6SM SKC
     FM271500 05005KT P6SM SCT250=



000
FTUS45 KLKN 261720
TAFTPH
TAF
KTPH 261720Z 2618/2718 33020G35KT P6SM FEW050 SCT250
     FM270500 36015KT P6SM FEW250
     FM271400 35020G30KT P6SM SCT250=



000
FTUS45 KLKN 261720
TAFWMC
TAF
KWMC 261720Z 2618/2718 31012G22KT P6SM FEW050 SCT080
     FM270200 02008KT P6SM FEW250
     FM271500 06007KT P6SM SCT250=



000
FTUS45 KLKN 261720
TAFEKO
TAF
KEKO 261720Z 2618/2718 31014G25KT P6SM FEW070 SCT120
     FM270200 VRB04KT P6SM SKC
     FM271500 05005KT P6SM SCT250=



000
FTUS45 KLKN 261720
TAFELY
TAF
KELY 261720Z 2618/2718 35017G28KT P6SM SCT060 SCT150
     FM270300 35008KT P6SM SKC
     FM271530 02010KT P6SM SKC=



000
FTUS45 KLKN 261720
TAFWMC
TAF
KWMC 261720Z 2618/2718 31012G22KT P6SM FEW050 SCT080
     FM270200 02008KT P6SM FEW250
     FM271500 06007KT P6SM SCT250=



000
FTUS45 KLKN 261720
TAFELY
TAF
KELY 261720Z 2618/2718 35017G28KT P6SM SCT060 SCT150
     FM270300 35008KT P6SM SKC
     FM271530 02010KT P6SM SKC=



000
FTUS45 KLKN 261720
TAFTPH
TAF
KTPH 261720Z 2618/2718 33020G35KT P6SM FEW050 SCT250
     FM270500 36015KT P6SM FEW250
     FM271400 35020G30KT P6SM SCT250=



000
FTUS45 KLKN 261120
TAFTPH
TAF
KTPH 261120Z 2612/2712 35011KT P6SM FEW100
     FM261630 33020G35KT P6SM FEW050 SCT250
     FM270500 36015KT P6SM FEW250=



000
FTUS45 KLKN 261120
TAFTPH
TAF
KTPH 261120Z 2612/2712 35011KT P6SM FEW100
     FM261630 33020G35KT P6SM FEW050 SCT250
     FM270500 36015KT P6SM FEW250=



000
FTUS45 KLKN 261120
TAFELY
TAF
KELY 261120Z 2612/2712 35007KT P6SM SCT030 BKN060
     FM261830 35015G25KT P6SM FEW060 SCT150
     FM270300 35006KT P6SM SKC=



000
FTUS45 KLKN 261120
TAFELY
TAF
KELY 261120Z 2612/2712 35007KT P6SM SCT030 BKN060
     FM261830 35015G25KT P6SM FEW060 SCT150
     FM270300 35006KT P6SM SKC=



000
FTUS45 KLKN 261120
TAFEKO
TAF
KEKO 261120Z 2612/2712 VRB04KT P6SM SCT060 BKN120
     FM261730 31014G25KT P6SM FEW070 SCT120
     FM270200 VRB06KT P6SM FEW100=



000
FTUS45 KLKN 261120
TAFWMC
TAF
KWMC 261120Z 2612/2712 31005KT P6SM SCT050 BKN080
     FM261800 31012G22KT P6SM FEW050 SCT080
     FM270200 02006KT P6SM FEW080=



000
FTUS45 KLKN 261120
TAFWMC
TAF
KWMC 261120Z 2612/2712 31005KT P6SM SCT050 BKN080
     FM261800 31012G22KT P6SM FEW050 SCT080
     FM270200 02006KT P6SM FEW080=



000
FTUS45 KLKN 261120
TAFEKO
TAF
KEKO 261120Z 2612/2712 VRB04KT P6SM SCT060 BKN120
     FM261730 31014G25KT P6SM FEW070 SCT120
     FM270200 VRB06KT P6SM FEW100=



000
FTUS45 KLKN 260833 AAA
TAFELY
TAF AMD
KELY 260833Z 2609/2706 33008KT P6SM VCSH SCT020 BKN040
      TEMPO 2609/2613 BKN025
     FM261300 35005KT P6SM SCT040 BKN070
     FM261730 34017G29KT P6SM SCT060 BKN250
     FM270300 35006KT P6SM SKC=



000
FTUS45 KLKN 260833 AAA
TAFELY
TAF AMD
KELY 260833Z 2609/2706 33008KT P6SM VCSH SCT020 BKN040
      TEMPO 2609/2613 BKN025
     FM261300 35005KT P6SM SCT040 BKN070
     FM261730 34017G29KT P6SM SCT060 BKN250
     FM270300 35006KT P6SM SKC=



000
FTUS45 KLKN 260520
TAFWMC
TAF
KWMC 260520Z 2606/2706 30004KT P6SM BKN050
     FM261000 31005KT P6SM VCFG SKC
     FM261800 31012G22KT P6SM FEW250
     FM270200 02006KT P6SM FEW200=



000
FTUS45 KLKN 260520
TAFELY
TAF
KELY 260520Z 2606/2706 33008KT P6SM VCSH FEW030 BKN070
     FM261000 35005KT P6SM BKN080
     FM261500 34017G29KT P6SM SCT060 BKN250
     FM270300 35006KT P6SM SKC=



000
FTUS45 KLKN 260520
TAFTPH
TAF
KTPH 260520Z 2606/2706 33020G30KT P6SM FEW100
     FM261500 33028G40KT P6SM FEW050 SCT250
     FM270500 36012KT P6SM FEW250=



000
FTUS45 KLKN 260520
TAFELY
TAF
KELY 260520Z 2606/2706 33008KT P6SM VCSH FEW030 BKN070
     FM261000 35005KT P6SM BKN080
     FM261500 34017G29KT P6SM SCT060 BKN250
     FM270300 35006KT P6SM SKC=



000
FTUS45 KLKN 260520
TAFEKO
TAF
KEKO 260520Z 2606/2706 VRB05KT P6SM SCT050 BKN100
     FM261000 VRB04KT P6SM VCFG SCT070
     FM261600 31014G25KT P6SM FEW070 FEW200
     FM270200 VRB06KT P6SM SKC=



000
FTUS45 KLKN 260520
TAFTPH
TAF
KTPH 260520Z 2606/2706 33020G30KT P6SM FEW100
     FM261500 33028G40KT P6SM FEW050 SCT250
     FM270500 36012KT P6SM FEW250=



000
FTUS45 KLKN 260520
TAFEKO
TAF
KEKO 260520Z 2606/2706 VRB05KT P6SM SCT050 BKN100
     FM261000 VRB04KT P6SM VCFG SCT070
     FM261600 31014G25KT P6SM FEW070 FEW200
     FM270200 VRB06KT P6SM SKC=



000
FTUS45 KLKN 260520
TAFWMC
TAF
KWMC 260520Z 2606/2706 30004KT P6SM BKN050
     FM261000 31005KT P6SM VCFG SKC
     FM261800 31012G22KT P6SM FEW250
     FM270200 02006KT P6SM FEW200=



000
FTUS45 KLKN 260520
TAFELY
TAF
KELY 260520Z 2606/2706 33008KT P6SM VCSH FEW030 BKN070
     FM261000 35005KT P6SM BKN080
     FM261500 34017G29KT P6SM SCT060 BKN250
     FM270300 35006KT P6SM SKC=



000
FTUS45 KLKN 260520
TAFELY
TAF
KELY 260520Z 2606/2706 33008KT P6SM VCSH FEW030 BKN070
     FM261000 35005KT P6SM BKN080
     FM261500 34017G29KT P6SM SCT060 BKN250
     FM270300 35006KT P6SM SKC=



000
FTUS45 KLKN 260520
TAFTPH
TAF
KTPH 260520Z 2606/2706 33020G30KT P6SM FEW100
     FM261500 33028G40KT P6SM FEW050 SCT250
     FM270500 36012KT P6SM FEW250=



000
FTUS45 KLKN 260520
TAFWMC
TAF
KWMC 260520Z 2606/2706 30004KT P6SM BKN050
     FM261000 31005KT P6SM VCFG SKC
     FM261800 31012G22KT P6SM FEW250
     FM270200 02006KT P6SM FEW200=



000
FTUS45 KLKN 260520
TAFEKO
TAF
KEKO 260520Z 2606/2706 VRB05KT P6SM SCT050 BKN100
     FM261000 VRB04KT P6SM VCFG SCT070
     FM261600 31014G25KT P6SM FEW070 FEW200
     FM270200 VRB06KT P6SM SKC=



000
FTUS45 KLKN 260520
TAFTPH
TAF
KTPH 260520Z 2606/2706 33020G30KT P6SM FEW100
     FM261500 33028G40KT P6SM FEW050 SCT250
     FM270500 36012KT P6SM FEW250=



000
FTUS45 KLKN 260520
TAFWMC
TAF
KWMC 260520Z 2606/2706 30004KT P6SM BKN050
     FM261000 31005KT P6SM VCFG SKC
     FM261800 31012G22KT P6SM FEW250
     FM270200 02006KT P6SM FEW200=



000
FTUS45 KLKN 260520
TAFEKO
TAF
KEKO 260520Z 2606/2706 VRB05KT P6SM SCT050 BKN100
     FM261000 VRB04KT P6SM VCFG SCT070
     FM261600 31014G25KT P6SM FEW070 FEW200
     FM270200 VRB06KT P6SM SKC=



000
FTUS45 KLKN 260404 AAC
TAFELY
TAF AMD
KELY 260404Z 2604/2624 33010KT P6SM VCSH SCT030 OVC060
     FM261000 33005KT P6SM BKN080
     FM261500 34015G25KT P6SM BKN250=



000
FTUS45 KLKN 260404 AAC
TAFELY
TAF AMD
KELY 260404Z 2604/2624 33010KT P6SM VCSH SCT030 OVC060
     FM261000 33005KT P6SM BKN080
     FM261500 34015G25KT P6SM BKN250=



000
FTUS45 KLKN 260124 AAB
TAFWMC
TAF AMD
KWMC 260124Z 2601/2624 36007KT P6SM VCSH SCT030 OVC060
      TEMPO 2601/2603 2SM SHRA BR BKN020
     FM260500 31010KT P6SM BKN050
     FM261000 31005KT P6SM VCFG SKC
     FM261800 31012G22KT P6SM FEW250=



000
FTUS45 KLKN 260124 AAB
TAFWMC
TAF AMD
KWMC 260124Z 2601/2624 36007KT P6SM VCSH SCT030 OVC060
      TEMPO 2601/2603 2SM SHRA BR BKN020
     FM260500 31010KT P6SM BKN050
     FM261000 31005KT P6SM VCFG SKC
     FM261800 31012G22KT P6SM FEW250=



000
FTUS45 KLKN 260121 AAB
TAFELY
TAF AMD
KELY 260121Z 2601/2624 28010KT P6SM VCSH FEW020 OVC050
      TEMPO 2601/2603 2SM -RASN OVC010
     FM260300 33010KT P6SM VCSH BKN030 OVC050
     FM261000 33005KT P6SM BKN080
     FM261500 34015G25KT P6SM BKN250=



000
FTUS45 KLKN 260121 AAB
TAFELY
TAF AMD
KELY 260121Z 2601/2624 28010KT P6SM VCSH FEW020 OVC050
      TEMPO 2601/2603 2SM -RASN OVC010
     FM260300 33010KT P6SM VCSH BKN030 OVC050
     FM261000 33005KT P6SM BKN080
     FM261500 34015G25KT P6SM BKN250=



000
FTUS45 KLKN 260118 AAA
TAFEKO
TAF AMD
KEKO 260118Z 2601/2624 29007KT P6SM VCSH FEW030 OVC060
      TEMPO 2601/2604 6SM -SHRA BKN020
     FM260400 VRB05KT P6SM BKN050
     FM261000 VRB04KT P6SM VCFG SCT050
     FM261600 27014G24KT P6SM SKC=



000
FTUS45 KLKN 260118 AAA
TAFEKO
TAF AMD
KEKO 260118Z 2601/2624 29007KT P6SM VCSH FEW030 OVC060
      TEMPO 2601/2604 6SM -SHRA BKN020
     FM260400 VRB05KT P6SM BKN050
     FM261000 VRB04KT P6SM VCFG SCT050
     FM261600 27014G24KT P6SM SKC=



000
FTUS45 KLKN 252354 AAA
TAFELY
TAF AMD
KELY 252354Z 2600/2624 28010KT P6SM VCSH SCT015 OVC040
      TEMPO 2600/2602 2SM -RASN OVC010
     FM260300 33010KT P6SM VCSH BKN030 OVC050
     FM261000 33005KT P6SM BKN080
     FM261500 34015G25KT P6SM BKN250=



000
FTUS45 KLKN 252354 AAA
TAFELY
TAF AMD
KELY 252354Z 2600/2624 28010KT P6SM VCSH SCT015 OVC040
      TEMPO 2600/2602 2SM -RASN OVC010
     FM260300 33010KT P6SM VCSH BKN030 OVC050
     FM261000 33005KT P6SM BKN080
     FM261500 34015G25KT P6SM BKN250=



000
FTUS45 KLKN 252354 AAA
TAFELY
TAF AMD
KELY 252354Z 2600/2624 28010KT P6SM VCSH SCT015 OVC040
      TEMPO 2600/2602 2SM -RASN OVC010
     FM260300 33010KT P6SM VCSH BKN030 OVC050
     FM261000 33005KT P6SM BKN080
     FM261500 34015G25KT P6SM BKN250=



000
FTUS45 KLKN 252354 AAA
TAFELY
TAF AMD
KELY 252354Z 2600/2624 28010KT P6SM VCSH SCT015 OVC040
      TEMPO 2600/2602 2SM -RASN OVC010
     FM260300 33010KT P6SM VCSH BKN030 OVC050
     FM261000 33005KT P6SM BKN080
     FM261500 34015G25KT P6SM BKN250=



000
FTUS45 KLKN 252352 AAA
TAFWMC
TAF AMD
KWMC 252352Z 2600/2624 31010KT P6SM VCSH SCT025 OVC035
      TEMPO 2600/2603 2SM SHRA BR BKN018
     FM260500 31010KT P6SM BKN050
     FM261000 31005KT P6SM VCFG SKC
     FM261800 31012G22KT P6SM FEW250=



000
FTUS45 KLKN 252352 AAA
TAFWMC
TAF AMD
KWMC 252352Z 2600/2624 31010KT P6SM VCSH SCT025 OVC035
      TEMPO 2600/2603 2SM SHRA BR BKN018
     FM260500 31010KT P6SM BKN050
     FM261000 31005KT P6SM VCFG SKC
     FM261800 31012G22KT P6SM FEW250=



000
FTUS45 KLKN 252320
TAFTPH
TAF
KTPH 252320Z 2600/2624 33018G28KT P6SM VCSH SCT030 BKN050
      TEMPO 2600/2602 VRB25G45KT -SHRA BKN030
     FM260200 35025G35KT P6SM BKN050 BKN200
     FM260600 33020G30KT P6SM SCT100
     FM261500 33028G40KT P6SM SCT250=



000
FTUS45 KLKN 252320
TAFTPH
TAF
KTPH 252320Z 2600/2624 33018G28KT P6SM VCSH SCT030 BKN050
      TEMPO 2600/2602 VRB25G45KT -SHRA BKN030
     FM260200 35025G35KT P6SM BKN050 BKN200
     FM260600 33020G30KT P6SM SCT100
     FM261500 33028G40KT P6SM SCT250=



000
FTUS45 KLKN 252320
TAFWMC
TAF
KWMC 252320Z 2600/2624 31010KT P6SM VCSH BKN025 OVC035
      TEMPO 2600/2602 1SM SHRA BR BKN018
     FM260500 31010KT P6SM BKN050
     FM261000 31005KT P6SM VCFG SKC
     FM261800 31012G22KT P6SM FEW250=



000
FTUS45 KLKN 252320
TAFEKO
TAF
KEKO 252320Z 2600/2624 28012G22KT P6SM VCSH SCT025 OVC050
      TEMPO 2600/2604 6SM -SHRA BKN020
     FM260400 VRB05KT P6SM BKN050
     FM261000 VRB04KT P6SM VCFG SCT050
     FM261600 27014G24KT P6SM SKC=



000
FTUS45 KLKN 252320
TAFWMC
TAF
KWMC 252320Z 2600/2624 31010KT P6SM VCSH BKN025 OVC035
      TEMPO 2600/2602 1SM SHRA BR BKN018
     FM260500 31010KT P6SM BKN050
     FM261000 31005KT P6SM VCFG SKC
     FM261800 31012G22KT P6SM FEW250=



000
FTUS45 KLKN 252320
TAFELY
TAF
KELY 252320Z 2600/2624 28010KT P6SM VCSH SCT015 OVC040
      TEMPO 2600/2602 2SM -TSSN OVC015CB
     FM260300 33010KT P6SM VCSH BKN030 OVC050
     FM261000 33005KT P6SM BKN080
     FM261500 34015G25KT P6SM BKN250=



000
FTUS45 KLKN 252320
TAFEKO
TAF
KEKO 252320Z 2600/2624 28012G22KT P6SM VCSH SCT025 OVC050
      TEMPO 2600/2604 6SM -SHRA BKN020
     FM260400 VRB05KT P6SM BKN050
     FM261000 VRB04KT P6SM VCFG SCT050
     FM261600 27014G24KT P6SM SKC=



000
FTUS45 KLKN 252320
TAFEKO
TAF
KEKO 252320Z 2600/2624 28012G22KT P6SM VCSH SCT025 OVC050
      TEMPO 2600/2604 6SM -SHRA BKN020
     FM260400 VRB05KT P6SM BKN050
     FM261000 VRB04KT P6SM VCFG SCT050
     FM261600 27014G24KT P6SM SKC=



000
FTUS45 KLKN 252320
TAFWMC
TAF
KWMC 252320Z 2600/2624 31010KT P6SM VCSH BKN025 OVC035
      TEMPO 2600/2602 1SM SHRA BR BKN018
     FM260500 31010KT P6SM BKN050
     FM261000 31005KT P6SM VCFG SKC
     FM261800 31012G22KT P6SM FEW250=



000
FTUS45 KLKN 252320
TAFELY
TAF
KELY 252320Z 2600/2624 28010KT P6SM VCSH SCT015 OVC040
      TEMPO 2600/2602 2SM -TSSN OVC015CB
     FM260300 33010KT P6SM VCSH BKN030 OVC050
     FM261000 33005KT P6SM BKN080
     FM261500 34015G25KT P6SM BKN250=



000
FTUS45 KLKN 252320
TAFWMC
TAF
KWMC 252320Z 2600/2624 31010KT P6SM VCSH BKN025 OVC035
      TEMPO 2600/2602 1SM SHRA BR BKN018
     FM260500 31010KT P6SM BKN050
     FM261000 31005KT P6SM VCFG SKC
     FM261800 31012G22KT P6SM FEW250=



000
FTUS45 KLKN 252320
TAFTPH
TAF
KTPH 252320Z 2600/2624 33018G28KT P6SM VCSH SCT030 BKN050
      TEMPO 2600/2602 VRB25G45KT -SHRA BKN030
     FM260200 35025G35KT P6SM BKN050 BKN200
     FM260600 33020G30KT P6SM SCT100
     FM261500 33028G40KT P6SM SCT250=



000
FTUS45 KLKN 252320
TAFTPH
TAF
KTPH 252320Z 2600/2624 33018G28KT P6SM VCSH SCT030 BKN050
      TEMPO 2600/2602 VRB25G45KT -SHRA BKN030
     FM260200 35025G35KT P6SM BKN050 BKN200
     FM260600 33020G30KT P6SM SCT100
     FM261500 33028G40KT P6SM SCT250=



000
FTUS45 KLKN 252320
TAFEKO
TAF
KEKO 252320Z 2600/2624 28012G22KT P6SM VCSH SCT025 OVC050
      TEMPO 2600/2604 6SM -SHRA BKN020
     FM260400 VRB05KT P6SM BKN050
     FM261000 VRB04KT P6SM VCFG SCT050
     FM261600 27014G24KT P6SM SKC=



000
FTUS45 KLKN 252320
TAFELY
TAF
KELY 252320Z 2600/2624 28010KT P6SM VCSH SCT015 OVC040
      TEMPO 2600/2602 2SM -TSSN OVC015CB
     FM260300 33010KT P6SM VCSH BKN030 OVC050
     FM261000 33005KT P6SM BKN080
     FM261500 34015G25KT P6SM BKN250=



000
FTUS45 KLKN 252320
TAFELY
TAF
KELY 252320Z 2600/2624 28010KT P6SM VCSH SCT015 OVC040
      TEMPO 2600/2602 2SM -TSSN OVC015CB
     FM260300 33010KT P6SM VCSH BKN030 OVC050
     FM261000 33005KT P6SM BKN080
     FM261500 34015G25KT P6SM BKN250=



000
FTUS45 KLKN 252013 AAB
TAFTPH
TAF AMD
KTPH 252013Z 2520/2618 34018G28KT P6SM VCTS SCT015 BKN035CB
      TEMPO 2520/2524 35025G45KT 2SM -TSRA OVC015CB
     FM260000 33025G35KT P6SM -SHRA OVC040
      TEMPO 2600/2602 35028G38KT SCT050 OVC100
     FM260200 35020G30KT P6SM SCT100 BKN200=



000
FTUS45 KLKN 252013 AAB
TAFTPH
TAF AMD
KTPH 252013Z 2520/2618 34018G28KT P6SM VCTS SCT015 BKN035CB
      TEMPO 2520/2524 35025G45KT 2SM -TSRA OVC015CB
     FM260000 33025G35KT P6SM -SHRA OVC040
      TEMPO 2600/2602 35028G38KT SCT050 OVC100
     FM260200 35020G30KT P6SM SCT100 BKN200=



000
FTUS45 KLKN 252008 AAA
TAFWMC
TAF AMD
KWMC 252008Z 2520/2618 31010G20KT P6SM -SHSN SCT008 OVC015
      TEMPO 2521/2523 4SM -SHRASN SCT015 OVC025
     FM260000 31010KT P6SM VCSH OVC025
     FM260400 31010KT P6SM BKN050
     FM261000 31005KT P6SM VCFG SKC=



000
FTUS45 KLKN 252008 AAA
TAFWMC
TAF AMD
KWMC 252008Z 2520/2618 31010G20KT P6SM -SHSN SCT008 OVC015
      TEMPO 2521/2523 4SM -SHRASN SCT015 OVC025
     FM260000 31010KT P6SM VCSH OVC025
     FM260400 31010KT P6SM BKN050
     FM261000 31005KT P6SM VCFG SKC=



000
FTUS45 KLKN 252006 AAA
TAFEKO
TAF AMD
KEKO 252006Z 2520/2618 26012KT P6SM VCSH BKN018 OVC025
      TEMPO 2520/2524 -SHRA SCT018 BKN030
     FM260000 31009KT P6SM VCSH BKN030
     FM260400 VRB05KT P6SM BKN050
     FM260900 VRB04KT P6SM VCFG SCT070
     FM261600 27014G24KT P6SM SKC=



000
FTUS45 KLKN 252006 AAA
TAFEKO
TAF AMD
KEKO 252006Z 2520/2618 26012KT P6SM VCSH BKN018 OVC025
      TEMPO 2520/2524 -SHRA SCT018 BKN030
     FM260000 31009KT P6SM VCSH BKN030
     FM260400 VRB05KT P6SM BKN050
     FM260900 VRB04KT P6SM VCFG SCT070
     FM261600 27014G24KT P6SM SKC=



000
FTUS45 KLKN 251940 AAA
TAFELY
TAF AMD
KELY 251940Z 2520/2618 17014KT P6SM VCTS BKN035 OVC050CB
      TEMPO 2521/2523 VRB20G45KT 2SM -TSRA OVC015CB
     FM252300 25010KT 3SM -RASN OVC015
      TEMPO 2523/2602 1SM -TSSN OVC015CB
     FM260300 33010KT P6SM VCSH BKN030 OVC050
     FM261000 33005KT P6SM BKN080=



000
FTUS45 KLKN 251935 AAA
TAFTPH
TAF AMD
KTPH 251935Z 2520/2618 34018G28KT P6SM BKN050
      TEMPO 2520/2524 35035G50KT -SHRA SCT050 BKN070
     FM260000 33025G35KT P6SM -SHRA OVC040
      TEMPO 2600/2602 35030G44KT SCT050 OVC100
     FM260200 35020G30KT P6SM SCT100 BKN200=



000
FTUS45 KLKN 251935 AAA
TAFTPH
TAF AMD
KTPH 251935Z 2520/2618 34018G28KT P6SM BKN050
      TEMPO 2520/2524 35035G50KT -SHRA SCT050 BKN070
     FM260000 33025G35KT P6SM -SHRA OVC040
      TEMPO 2600/2602 35030G44KT SCT050 OVC100
     FM260200 35020G30KT P6SM SCT100 BKN200=



000
FTUS45 KLKN 251935 AAA
TAFTPH
TAF AMD
KTPH 251935Z 2520/2618 34018G28KT P6SM BKN050
      TEMPO 2520/2524 35035G50KT -SHRA SCT050 BKN070
     FM260000 33025G35KT P6SM -SHRA OVC040
      TEMPO 2600/2602 35030G44KT SCT050 OVC100
     FM260200 35020G30KT P6SM SCT100 BKN200=



000
FTUS45 KLKN 251935 AAA
TAFTPH
TAF AMD
KTPH 251935Z 2520/2618 34018G28KT P6SM BKN050
      TEMPO 2520/2524 35035G50KT -SHRA SCT050 BKN070
     FM260000 33025G35KT P6SM -SHRA OVC040
      TEMPO 2600/2602 35030G44KT SCT050 OVC100
     FM260200 35020G30KT P6SM SCT100 BKN200=



000
FTUS45 KLKN 251720
TAFELY
TAF
KELY 251720Z 2518/2618 17014KT P6SM VCSH SCT030 BKN050
      TEMPO 2519/2521 -SHRA BKN040
     FM252100 25010KT 4SM -RASN OVC015
      TEMPO 2521/2524 1SM -TSSN OVC015CB
     FM260000 35010KT 3SM -SN OVC025
     FM260300 33010KT P6SM VCSH BKN030 OVC050
     FM261000 33005KT P6SM BKN080=



000
FTUS45 KLKN 251720
TAFEKO
TAF
KEKO 251720Z 2518/2618 VRB06KT 5SM -RASN OVC015
      TEMPO 2518/2522 1SM -SN BR OVC005
     FM252200 30010KT 5SM -SN OVC015
      TEMPO 2522/2524 2SM -SN OVC010
     FM260000 31008KT P6SM -SHSN OVC025
     FM260400 VRB05KT P6SM BKN050 OVC080
     FM260900 VRB04KT P6SM VCFG SCT080
     FM261500 27014G24KT P6SM SKC=



000
FTUS45 KLKN 251720
TAFEKO
TAF
KEKO 251720Z 2518/2618 VRB06KT 5SM -RASN OVC015
      TEMPO 2518/2522 1SM -SN BR OVC005
     FM252200 30010KT 5SM -SN OVC015
      TEMPO 2522/2524 2SM -SN OVC010
     FM260000 31008KT P6SM -SHSN OVC025
     FM260400 VRB05KT P6SM BKN050 OVC080
     FM260900 VRB04KT P6SM VCFG SCT080
     FM261500 27014G24KT P6SM SKC=



000
FTUS45 KLKN 251720
TAFELY
TAF
KELY 251720Z 2518/2618 17014KT P6SM VCSH SCT030 BKN050
      TEMPO 2519/2521 -SHRA BKN040
     FM252100 25010KT 4SM -RASN OVC015
      TEMPO 2521/2524 1SM -TSSN OVC015CB
     FM260000 35010KT 3SM -SN OVC025
     FM260300 33010KT P6SM VCSH BKN030 OVC050
     FM261000 33005KT P6SM BKN080=



000
FTUS45 KLKN 251720
TAFWMC
TAF
KWMC 251720Z 2518/2618 28006KT 1/2SM SN FG OVC005
      TEMPO 2518/2521 2SM -SN BR OVC015
     FM252100 31010G20KT 5SM -SHSN OVC030
      TEMPO 2521/2523 2SM -SHSN OVC015
     FM260000 31010KT P6SM -SHSN OVC025
     FM260400 31010KT P6SM BKN050
     FM261000 31005KT P6SM VCFG SKC=



000
FTUS45 KLKN 251720
TAFTPH
TAF
KTPH 251720Z 2518/2618 34012G22KT P6SM BKN050
     FM252000 33025G35KT P6SM -SHRA OVC040
      TEMPO 2522/2602 35030G44KT SCT050 OVC100
     FM260200 35020G30KT P6SM SCT100 BKN200=



000
FTUS45 KLKN 251720
TAFWMC
TAF
KWMC 251720Z 2518/2618 28006KT 1/2SM SN FG OVC005
      TEMPO 2518/2521 2SM -SN BR OVC015
     FM252100 31010G20KT 5SM -SHSN OVC030
      TEMPO 2521/2523 2SM -SHSN OVC015
     FM260000 31010KT P6SM -SHSN OVC025
     FM260400 31010KT P6SM BKN050
     FM261000 31005KT P6SM VCFG SKC=



000
FTUS45 KLKN 251720
TAFTPH
TAF
KTPH 251720Z 2518/2618 34012G22KT P6SM BKN050
     FM252000 33025G35KT P6SM -SHRA OVC040
      TEMPO 2522/2602 35030G44KT SCT050 OVC100
     FM260200 35020G30KT P6SM SCT100 BKN200=



000
FTUS45 KLKN 251720
TAFWMC
TAF
KWMC 251720Z 2518/2618 28006KT 1/2SM SN FG OVC005
      TEMPO 2518/2521 2SM -SN BR OVC015
     FM252100 31010G20KT 5SM -SHSN OVC030
      TEMPO 2521/2523 2SM -SHSN OVC015
     FM260000 31010KT P6SM -SHSN OVC025
     FM260400 31010KT P6SM BKN050
     FM261000 31005KT P6SM VCFG SKC=



000
FTUS45 KLKN 251720
TAFTPH
TAF
KTPH 251720Z 2518/2618 34012G22KT P6SM BKN050
     FM252000 33025G35KT P6SM -SHRA OVC040
      TEMPO 2522/2602 35030G44KT SCT050 OVC100
     FM260200 35020G30KT P6SM SCT100 BKN200=



000
FTUS45 KLKN 251720
TAFELY
TAF
KELY 251720Z 2518/2618 17014KT P6SM VCSH SCT030 BKN050
      TEMPO 2519/2521 -SHRA BKN040
     FM252100 25010KT 4SM -RASN OVC015
      TEMPO 2521/2524 1SM -TSSN OVC015CB
     FM260000 35010KT 3SM -SN OVC025
     FM260300 33010KT P6SM VCSH BKN030 OVC050
     FM261000 33005KT P6SM BKN080=



000
FTUS45 KLKN 251720
TAFWMC
TAF
KWMC 251720Z 2518/2618 28006KT 1/2SM SN FG OVC005
      TEMPO 2518/2521 2SM -SN BR OVC015
     FM252100 31010G20KT 5SM -SHSN OVC030
      TEMPO 2521/2523 2SM -SHSN OVC015
     FM260000 31010KT P6SM -SHSN OVC025
     FM260400 31010KT P6SM BKN050
     FM261000 31005KT P6SM VCFG SKC=



000
FTUS45 KLKN 251720
TAFEKO
TAF
KEKO 251720Z 2518/2618 VRB06KT 5SM -RASN OVC015
      TEMPO 2518/2522 1SM -SN BR OVC005
     FM252200 30010KT 5SM -SN OVC015
      TEMPO 2522/2524 2SM -SN OVC010
     FM260000 31008KT P6SM -SHSN OVC025
     FM260400 VRB05KT P6SM BKN050 OVC080
     FM260900 VRB04KT P6SM VCFG SCT080
     FM261500 27014G24KT P6SM SKC=



000
FTUS45 KLKN 251720
TAFTPH
TAF
KTPH 251720Z 2518/2618 34012G22KT P6SM BKN050
     FM252000 33025G35KT P6SM -SHRA OVC040
      TEMPO 2522/2602 35030G44KT SCT050 OVC100
     FM260200 35020G30KT P6SM SCT100 BKN200=



000
FTUS45 KLKN 251720
TAFEKO
TAF
KEKO 251720Z 2518/2618 VRB06KT 5SM -RASN OVC015
      TEMPO 2518/2522 1SM -SN BR OVC005
     FM252200 30010KT 5SM -SN OVC015
      TEMPO 2522/2524 2SM -SN OVC010
     FM260000 31008KT P6SM -SHSN OVC025
     FM260400 VRB05KT P6SM BKN050 OVC080
     FM260900 VRB04KT P6SM VCFG SCT080
     FM261500 27014G24KT P6SM SKC=



000
FTUS45 KLKN 251720
TAFELY
TAF
KELY 251720Z 2518/2618 17014KT P6SM VCSH SCT030 BKN050
      TEMPO 2519/2521 -SHRA BKN040
     FM252100 25010KT 4SM -RASN OVC015
      TEMPO 2521/2524 1SM -TSSN OVC015CB
     FM260000 35010KT 3SM -SN OVC025
     FM260300 33010KT P6SM VCSH BKN030 OVC050
     FM261000 33005KT P6SM BKN080=



000
FTUS45 KLKN 251617 AAA
TAFELY
TAF AMD
KELY 251617Z 2516/2612 17014KT P6SM VCSH SCT030 BKN050
      TEMPO 2518/2521 -SHRA BKN040
     FM252100 23010KT 3SM -RA OVC015
      TEMPO 2521/2523 4SM -TSRA OVC015CB
     FM260000 35010KT 3SM -SN OVC025
     FM260300 33010KT P6SM VCSH BKN030 OVC080=



000
FTUS45 KLKN 251617 AAA
TAFELY
TAF AMD
KELY 251617Z 2516/2612 17014KT P6SM VCSH SCT030 BKN050
      TEMPO 2518/2521 -SHRA BKN040
     FM252100 23010KT 3SM -RA OVC015
      TEMPO 2521/2523 4SM -TSRA OVC015CB
     FM260000 35010KT 3SM -SN OVC025
     FM260300 33010KT P6SM VCSH BKN030 OVC080=



000
FTUS45 KLKN 251617 AAA
TAFELY
TAF AMD
KELY 251617Z 2516/2612 17014KT P6SM VCSH SCT030 BKN050
      TEMPO 2518/2521 -SHRA BKN040
     FM252100 23010KT 3SM -RA OVC015
      TEMPO 2521/2523 4SM -TSRA OVC015CB
     FM260000 35010KT 3SM -SN OVC025
     FM260300 33010KT P6SM VCSH BKN030 OVC080=



000
FTUS45 KLKN 251617 AAA
TAFELY
TAF AMD
KELY 251617Z 2516/2612 17014KT P6SM VCSH SCT030 BKN050
      TEMPO 2518/2521 -SHRA BKN040
     FM252100 23010KT 3SM -RA OVC015
      TEMPO 2521/2523 4SM -TSRA OVC015CB
     FM260000 35010KT 3SM -SN OVC025
     FM260300 33010KT P6SM VCSH BKN030 OVC080=



000
FTUS45 KLKN 251519 AAA
TAFEKO
TAF AMD
KEKO 251519Z 2515/2612 VRB06KT 6SM RA OVC015
      TEMPO 2516/2518 3SM -RASN OVC007
     FM251800 31012G22KT 3SM -SNRA OVC020
      TEMPO 2518/2520 1SM -SN OVC007
     FM252300 31010KT P6SM -SHSN OVC025
     FM260300 VRB05KT P6SM OVC050=



000
FTUS45 KLKN 251519 AAA
TAFEKO
TAF AMD
KEKO 251519Z 2515/2612 VRB06KT 6SM RA OVC015
      TEMPO 2516/2518 3SM -RASN OVC007
     FM251800 31012G22KT 3SM -SNRA OVC020
      TEMPO 2518/2520 1SM -SN OVC007
     FM252300 31010KT P6SM -SHSN OVC025
     FM260300 VRB05KT P6SM OVC050=



000
FTUS45 KLKN 251446 AAA
TAFWMC
TAF AMD
KWMC 251446Z 2515/2612 VRB06KT 3SM -SN OVC025
      TEMPO 2515/2518 1/2SM SN OVC005
     FM251800 31012G22KT 6SM -SHRA OVC030
     FM260000 31010KT P6SM OVC050=



000
FTUS45 KLKN 251446 AAA
TAFWMC
TAF AMD
KWMC 251446Z 2515/2612 VRB06KT 3SM -SN OVC025
      TEMPO 2515/2518 1/2SM SN OVC005
     FM251800 31012G22KT 6SM -SHRA OVC030
     FM260000 31010KT P6SM OVC050=



000
FTUS45 KLKN 251120
TAFWMC
TAF
KWMC 251120Z 2512/2612 VRB06KT 6SM -RA OVC030
      TEMPO 2512/2516 3SM -RA OVC015
     FM251800 31012G22KT 6SM -SHRA OVC030
     FM260000 31010KT P6SM OVC050=



000
FTUS45 KLKN 251120
TAFEKO
TAF
KEKO 251120Z 2512/2612 VRB05KT P6SM VCSH SCT030 OVC050
     FM251500 22010KT 4SM -RA OVC023
     FM251800 31012G22KT 6SM -SHRA OVC030
     FM260300 VRB05KT P6SM OVC050=



000
FTUS45 KLKN 251120
TAFEKO
TAF
KEKO 251120Z 2512/2612 VRB05KT P6SM VCSH SCT030 OVC050
     FM251500 22010KT 4SM -RA OVC023
     FM251800 31012G22KT 6SM -SHRA OVC030
     FM260300 VRB05KT P6SM OVC050=



000
FTUS45 KLKN 251120
TAFELY
TAF
KELY 251120Z 2512/2612 24005KT P6SM VCSH SCT030 BKN050
      TEMPO 2517/2521 -SHRA BKN025
     FM252100 23010KT 3SM -RA OVC015
     FM260000 33010KT P6SM VCSH BKN030 OVC080=



000
FTUS45 KLKN 251120
TAFTPH
TAF
KTPH 251120Z 2512/2612 34012KT P6SM SCT050 BKN080
     FM252000 33015G25KT P6SM -SHRA OVC050
      TEMPO 2522/2602 35020G33KT SCT050 OVC100
     FM260200 35020KT P6SM SCT100 BKN200=



000
FTUS45 KLKN 251120
TAFWMC
TAF
KWMC 251120Z 2512/2612 VRB06KT 6SM -RA OVC030
      TEMPO 2512/2516 3SM -RA OVC015
     FM251800 31012G22KT 6SM -SHRA OVC030
     FM260000 31010KT P6SM OVC050=



000
FTUS45 KLKN 251120
TAFTPH
TAF
KTPH 251120Z 2512/2612 34012KT P6SM SCT050 BKN080
     FM252000 33015G25KT P6SM -SHRA OVC050
      TEMPO 2522/2602 35020G33KT SCT050 OVC100
     FM260200 35020KT P6SM SCT100 BKN200=



000
FTUS45 KLKN 251120
TAFWMC
TAF
KWMC 251120Z 2512/2612 VRB06KT 6SM -RA OVC035
      TEMPO 2512/2516 4SM -RA OVC015
     FM251800 31012G22KT 6SM -SHRA OVC030
     FM260000 31010KT P6SM OVC050=



000
FTUS45 KLKN 251120
TAFELY
TAF
KELY 251120Z 2512/2612 24005KT P6SM VCSH SCT030 BKN050
      TEMPO 2517/2521 -SHRA BKN025
     FM252100 23010KT 3SM -RA OVC015
     FM260000 33010KT P6SM VCSH BKN030 OVC080=



000
FTUS45 KLKN 251100 CCA
TAFWMC
TAF COR
KWMC 251100Z 2506/2606 VRB05KT P6SM VCSH BKN035 OVC060
     FM251000 VRB06KT 4SM -RA OVC014
      TEMPO 2515/2518 2SM -RA OVC015
     FM251800 31012G22KT 6SM -SHRA OVC030
     FM260000 31010KT P6SM OVC050=



000
FTUS45 KLKN 251100 CCA
TAFWMC
TAF COR
KWMC 251100Z 2506/2606 VRB05KT P6SM VCSH BKN035 OVC060
     FM251000 VRB06KT 4SM -RA OVC014
      TEMPO 2515/2518 2SM -RA OVC015
     FM251800 31012G22KT 6SM -SHRA OVC030
     FM260000 31010KT P6SM OVC050=



000
FTUS45 KLKN 250520
TAFELY
TAF
KELY 250520Z 2506/2606 24005KT P6SM VCSH SCT030 BKN050
     FM251000 19008KT P6SM SCT050 BKN100
      TEMPO 2515/2519 -SHSN BKN040
     FM251900 23010KT 3SM -RA OVC015
     FM260000 33010KT P6SM VCSH BKN030 OVC080=



000
FTUS45 KLKN 250520
TAFELY
TAF
KELY 250520Z 2506/2606 24005KT P6SM VCSH SCT030 BKN050
     FM251000 19008KT P6SM SCT050 BKN100
      TEMPO 2515/2519 -SHSN BKN040
     FM251900 23010KT 3SM -RA OVC015
     FM260000 33010KT P6SM VCSH BKN030 OVC080=



000
FTUS45 KLKN 250520
TAFEKO
TAF
KEKO 250520Z 2506/2606 VRB05KT P6SM VCSH SCT030 OVC050
      TEMPO 2506/2510 4SM -SHRA BKN030
     FM251500 22010G20KT 4SM -RA OVC015
     FM251800 31012G22KT 6SM -SHRA OVC030
     FM260300 VRB05KT P6SM OVC050=



000
FTUS45 KLKN 250520
TAFEKO
TAF
KEKO 250520Z 2506/2606 VRB05KT P6SM VCSH SCT030 OVC050
      TEMPO 2506/2510 4SM -SHRA BKN030
     FM251500 22010G20KT 4SM -RA OVC015
     FM251800 31012G22KT 6SM -SHRA OVC030
     FM260300 VRB05KT P6SM OVC050=



000
FTUS45 KLKN 250520
TAFWMC
TAF
KWMC 250520Z 2506/2606 VRB05KT P6SM VCSH BKN070 OVC090
     FM251000 VRB06KT 4SM -RA OVC025
      TEMPO 2515/2518 2SM -RA OVC015
     FM251800 31012G22KT 6SM -SHRA OVC030
     FM260000 31010KT P6SM OVC050=



000
FTUS45 KLKN 250520
TAFEKO
TAF
KEKO 250520Z 2506/2606 VRB05KT P6SM VCSH SCT030 OVC050
      TEMPO 2506/2510 4SM -SHRA BKN030
     FM251500 22010G20KT 4SM -RA OVC015
     FM251800 31012G22KT 6SM -SHRA OVC030
     FM260300 VRB05KT P6SM OVC050=



000
FTUS45 KLKN 250520
TAFWMC
TAF
KWMC 250520Z 2506/2606 VRB05KT P6SM VCSH BKN070 OVC090
     FM251000 VRB06KT 4SM -RA OVC025
      TEMPO 2515/2518 2SM -RA OVC015
     FM251800 31012G22KT 6SM -SHRA OVC030
     FM260000 31010KT P6SM OVC050=



000
FTUS45 KLKN 250520
TAFWMC
TAF
KWMC 250520Z 2506/2606 VRB05KT P6SM VCSH BKN070 OVC090
     FM251000 VRB06KT 4SM -RA OVC025
      TEMPO 2515/2518 2SM -RA OVC015
     FM251800 31012G22KT 6SM -SHRA OVC030
     FM260000 31010KT P6SM OVC050=



000
FTUS45 KLKN 250520
TAFTPH
TAF
KTPH 250520Z 2506/2606 34012KT P6SM SCT050 BKN080
     FM251000 34007KT P6SM OVC100
     FM252000 33015G25KT P6SM -SHRA OVC050
      TEMPO 2522/2602 35020G33KT SCT050 OVC100
     FM260200 35020KT P6SM SCT100 BKN200=



000
FTUS45 KLKN 250520
TAFEKO
TAF
KEKO 250520Z 2506/2606 VRB05KT P6SM VCSH SCT030 OVC050
      TEMPO 2506/2510 4SM -SHRA BKN030
     FM251500 22010G20KT 4SM -RA OVC015
     FM251800 31012G22KT 6SM -SHRA OVC030
     FM260300 VRB05KT P6SM OVC050=



000
FTUS45 KLKN 250520
TAFWMC
TAF
KWMC 250520Z 2506/2606 VRB05KT P6SM VCSH BKN070 OVC090
     FM251000 VRB06KT 4SM -RA OVC025
      TEMPO 2515/2518 2SM -RA OVC015
     FM251800 31012G22KT 6SM -SHRA OVC030
     FM260000 31010KT P6SM OVC050=



000
FTUS45 KLKN 250520
TAFTPH
TAF
KTPH 250520Z 2506/2606 34012KT P6SM SCT050 BKN080
     FM251000 34007KT P6SM OVC100
     FM252000 33015G25KT P6SM -SHRA OVC050
      TEMPO 2522/2602 35020G33KT SCT050 OVC100
     FM260200 35020KT P6SM SCT100 BKN200=



000
FTUS45 KLKN 250520
TAFTPH
TAF
KTPH 250520Z 2506/2606 34012KT P6SM SCT050 BKN080
     FM251000 34007KT P6SM OVC100
     FM252000 33015G25KT P6SM -SHRA OVC050
      TEMPO 2522/2602 35020G33KT SCT050 OVC100
     FM260200 35020KT P6SM SCT100 BKN200=



000
FTUS45 KLKN 250520
TAFTPH
TAF
KTPH 250520Z 2506/2606 34012KT P6SM SCT050 BKN080
     FM251000 34007KT P6SM OVC100
     FM252000 33015G25KT P6SM -SHRA OVC050
      TEMPO 2522/2602 35020G33KT SCT050 OVC100
     FM260200 35020KT P6SM SCT100 BKN200=



000
FTUS45 KLKN 242320
TAFEKO
TAF
KEKO 242320Z 2500/2524 24012KT P6SM VCTS SCT050CB OVC080
      TEMPO 2500/2503 VRB15G35KT 6SM -SHRA SCT030 OVC050
     FM250300 VRB05KT P6SM VCSH SCT030 BKN050
     FM251500 22010G20KT 4SM -RA OVC015=



000
FTUS45 KLKN 242320
TAFTPH
TAF
KTPH 242320Z 2500/2524 31014KT P6SM VCTS SCT050CB BKN080
      TEMPO 2500/2502 VRB15G35KT -SHRA BKN050
     FM250300 34020G28KT P6SM SCT050 BKN080
     FM251000 34007KT P6SM OVC100
     FM252000 33015G25KT P6SM -SHRA OVC050=



000
FTUS45 KLKN 242320
TAFELY
TAF
KELY 242320Z 2500/2524 26010KT P6SM -RA VCTS SCT035 OVC050CB
      TEMPO 2500/2502 VRB15G35KT 2SM TSRA OVC020CB
     FM250300 29010KT P6SM VCSH SCT030 OVC050
     FM252000 23010KT 3SM -RA OVC015=



000
FTUS45 KLKN 242320
TAFWMC
TAF
KWMC 242320Z 2500/2524 VRB06KT P6SM VCSH SCT050 BKN080
      TEMPO 2500/2502 27014G24KT 5SM -SHRA OVC035
     FM250600 VRB05KT P6SM VCSH BKN050 OVC070
     FM251000 VRB06KT 4SM -RA OVC025
     FM251800 31012G22KT 6SM -SHRA OVC030=



000
FTUS45 KLKN 242320
TAFWMC
TAF
KWMC 242320Z 2500/2524 VRB06KT P6SM VCSH SCT050 BKN080
      TEMPO 2500/2502 27014G24KT 5SM -SHRA OVC035
     FM250600 VRB05KT P6SM VCSH BKN050 OVC070
     FM251000 VRB06KT 4SM -RA OVC025
     FM251800 31012G22KT 6SM -SHRA OVC030=



000
FTUS45 KLKN 242320
TAFWMC
TAF
KWMC 242320Z 2500/2524 VRB06KT P6SM VCSH SCT050 BKN080
      TEMPO 2500/2502 27014G24KT 5SM -SHRA OVC035
     FM250600 VRB05KT P6SM VCSH BKN050 OVC070
     FM251000 VRB06KT 4SM -RA OVC025
     FM251800 31012G22KT 6SM -SHRA OVC030=



000
FTUS45 KLKN 242320
TAFTPH
TAF
KTPH 242320Z 2500/2524 31014KT P6SM VCTS SCT050CB BKN080
      TEMPO 2500/2502 VRB15G35KT -SHRA BKN050
     FM250300 34020G28KT P6SM SCT050 BKN080
     FM251000 34007KT P6SM OVC100
     FM252000 33015G25KT P6SM -SHRA OVC050=



000
FTUS45 KLKN 242320
TAFTPH
TAF
KTPH 242320Z 2500/2524 31014KT P6SM VCTS SCT050CB BKN080
      TEMPO 2500/2502 VRB15G35KT -SHRA BKN050
     FM250300 34020G28KT P6SM SCT050 BKN080
     FM251000 34007KT P6SM OVC100
     FM252000 33015G25KT P6SM -SHRA OVC050=



000
FTUS45 KLKN 242320
TAFEKO
TAF
KEKO 242320Z 2500/2524 24012KT P6SM VCTS SCT050CB OVC080
      TEMPO 2500/2503 VRB15G35KT 6SM -SHRA SCT030 OVC050
     FM250300 VRB05KT P6SM VCSH SCT030 BKN050
     FM251500 22010G20KT 4SM -RA OVC015=



000
FTUS45 KLKN 242320
TAFELY
TAF
KELY 242320Z 2500/2524 26010KT P6SM -RA VCTS SCT035 OVC050CB
      TEMPO 2500/2502 VRB15G35KT 2SM TSRA OVC020CB
     FM250300 29010KT P6SM VCSH SCT030 OVC050
     FM252000 23010KT 3SM -RA OVC015=



000
FTUS45 KLKN 242320
TAFEKO
TAF
KEKO 242320Z 2500/2524 24012KT P6SM VCTS SCT050CB OVC080
      TEMPO 2500/2503 VRB15G35KT 6SM -SHRA SCT030 OVC050
     FM250300 VRB05KT P6SM VCSH SCT030 BKN050
     FM251500 22010G20KT 4SM -RA OVC015=



000
FTUS45 KLKN 242320
TAFELY
TAF
KELY 242320Z 2500/2524 26010KT P6SM -RA VCTS SCT035 OVC050CB
      TEMPO 2500/2502 VRB15G35KT 2SM TSRA OVC020CB
     FM250300 29010KT P6SM VCSH SCT030 OVC050
     FM252000 23010KT 3SM -RA OVC015=



000
FTUS45 KLKN 242320
TAFELY
TAF
KELY 242320Z 2500/2524 26010KT P6SM -RA VCTS SCT035 OVC050CB
      TEMPO 2500/2502 VRB15G35KT 2SM TSRA OVC020CB
     FM250300 29010KT P6SM VCSH SCT030 OVC050
     FM252000 23010KT 3SM -RA OVC015=



000
FTUS45 KLKN 242320
TAFWMC
TAF
KWMC 242320Z 2500/2524 VRB06KT P6SM VCSH SCT050 BKN080
      TEMPO 2500/2502 27014G24KT 5SM -SHRA OVC035
     FM250600 VRB05KT P6SM VCSH BKN050 OVC070
     FM251000 VRB06KT 4SM -RA OVC025
     FM251800 31012G22KT 6SM -SHRA OVC030=



000
FTUS45 KLKN 242320
TAFEKO
TAF
KEKO 242320Z 2500/2524 24012KT P6SM VCTS SCT050CB OVC080
      TEMPO 2500/2503 VRB15G35KT 6SM -SHRA SCT030 OVC050
     FM250300 VRB05KT P6SM VCSH SCT030 BKN050
     FM251500 22010G20KT 4SM -RA OVC015=



000
FTUS45 KLKN 242320
TAFTPH
TAF
KTPH 242320Z 2500/2524 31014KT P6SM VCTS SCT050CB BKN080
      TEMPO 2500/2502 VRB15G35KT -SHRA BKN050
     FM250300 34020G28KT P6SM SCT050 BKN080
     FM251000 34007KT P6SM OVC100
     FM252000 33015G25KT P6SM -SHRA OVC050=



000
FTUS45 KLKN 242207 AAB
TAFELY
TAF AMD
KELY 242207Z 2422/2518 VRB06KT P6SM -RA VCTS SCT035 OVC050CB
      TEMPO 2422/2424 VRB15G25KT 4SM -TSRA OVC035CB
     FM250200 29010KT P6SM VCSH SCT030 OVC050=



000
FTUS45 KLKN 242207 AAB
TAFELY
TAF AMD
KELY 242207Z 2422/2518 VRB06KT P6SM -RA VCTS SCT035 OVC050CB
      TEMPO 2422/2424 VRB15G25KT 4SM -TSRA OVC035CB
     FM250200 29010KT P6SM VCSH SCT030 OVC050=



000
FTUS45 KLKN 242103 AAB
TAFWMC
TAF AMD
KWMC 242103Z 2421/2518 26012G22KT P6SM -SHRA BKN050
      TEMPO 2421/2424 2SM -SHRA OVC025
     FM250600 VRB05KT P6SM -SHRA BKN030 OVC050
     FM251100 VRB06KT 4SM -RA OVC020=



000
FTUS45 KLKN 242103 AAB
TAFWMC
TAF AMD
KWMC 242103Z 2421/2518 26012G22KT P6SM -SHRA BKN050
      TEMPO 2421/2424 2SM -SHRA OVC025
     FM250600 VRB05KT P6SM -SHRA BKN030 OVC050
     FM251100 VRB06KT 4SM -RA OVC020=



000
FTUS45 KLKN 241938 AAB
TAFEKO
TAF AMD
KEKO 241938Z 2420/2518 25014G24KT P6SM -SHRA VCTS BKN030 OVC050CB
      TEMPO 2420/2424 VRB15G30KT 2SM -TSRA OVC025CB
     FM250200 VRB05KT P6SM -SHRA SCT025 OVC035
     FM251600 22008KT 4SM -RA OVC015=



000
FTUS45 KLKN 241938 AAB
TAFEKO
TAF AMD
KEKO 241938Z 2420/2518 25014G24KT P6SM -SHRA VCTS BKN030 OVC050CB
      TEMPO 2420/2424 VRB15G30KT 2SM -TSRA OVC025CB
     FM250200 VRB05KT P6SM -SHRA SCT025 OVC035
     FM251600 22008KT 4SM -RA OVC015=



000
FTUS45 KLKN 241935 AAA
TAFWMC
TAF AMD
KWMC 241935Z 2420/2518 26012G22KT P6SM -SHRA BKN035 OVC045
      TEMPO 2420/2424 1SM RA OVC020
     FM250600 VRB05KT P6SM -SHRA BKN030 OVC050
     FM251100 VRB06KT 4SM -RA OVC020=



000
FTUS45 KLKN 241935 AAA
TAFWMC
TAF AMD
KWMC 241935Z 2420/2518 26012G22KT P6SM -SHRA BKN035 OVC045
      TEMPO 2420/2424 1SM RA OVC020
     FM250600 VRB05KT P6SM -SHRA BKN030 OVC050
     FM251100 VRB06KT 4SM -RA OVC020=



000
FTUS45 KLKN 241900 AAA
TAFEKO
TAF AMD
KEKO 241900Z 2419/2518 24012G22KT P6SM -SHRA SCT025 OVC035
      TEMPO 2419/2420 3SM -SHRA BKN025
     FM242000 28014G24KT P6SM -SHRA VCTS SCT030 OVC050CB
      TEMPO 2420/2424 2SM -TSRA OVC025CB
     FM250200 VRB05KT P6SM -SHRA SCT025 OVC035
     FM251600 22008KT 4SM -RA OVC015=



000
FTUS45 KLKN 241900 AAA
TAFEKO
TAF AMD
KEKO 241900Z 2419/2518 24012G22KT P6SM -SHRA SCT025 OVC035
      TEMPO 2419/2420 3SM -SHRA BKN025
     FM242000 28014G24KT P6SM -SHRA VCTS SCT030 OVC050CB
      TEMPO 2420/2424 2SM -TSRA OVC025CB
     FM250200 VRB05KT P6SM -SHRA SCT025 OVC035
     FM251600 22008KT 4SM -RA OVC015=



000
FTUS45 KLKN 241853 AAA
TAFELY
TAF AMD
KELY 241853Z 2419/2518 25014G24KT P6SM -RA VCTS SCT035 OVC050CB
      TEMPO 2419/2423 VRB15G30KT 4SM -TSRA OVC035CB
     FM250200 29010KT P6SM VCSH SCT030 OVC050=



000
FTUS45 KLKN 241853 AAA
TAFELY
TAF AMD
KELY 241853Z 2419/2518 25014G24KT P6SM -RA VCTS SCT035 OVC050CB
      TEMPO 2419/2423 VRB15G30KT 4SM -TSRA OVC035CB
     FM250200 29010KT P6SM VCSH SCT030 OVC050=



000
FTUS45 KLKN 241850 AAA
TAFTPH
TAF AMD
KTPH 241850Z 2419/2518 VRB05KT P6SM -RA VCTS BKN050CB
      TEMPO 2419/2420 2SM -TSRA OVC040CB
     FM242000 29015G25KT P6SM VCTS BKN050CB
      TEMPO 2420/2424 2SM -TSRA OVC040CB
     FM250000 32020G30KT P6SM BKN050
     FM250700 35009KT P6SM BKN070=



000
FTUS45 KLKN 241850 AAA
TAFTPH
TAF AMD
KTPH 241850Z 2419/2518 VRB05KT P6SM -RA VCTS BKN050CB
      TEMPO 2419/2420 2SM -TSRA OVC040CB
     FM242000 29015G25KT P6SM VCTS BKN050CB
      TEMPO 2420/2424 2SM -TSRA OVC040CB
     FM250000 32020G30KT P6SM BKN050
     FM250700 35009KT P6SM BKN070=



000
FTUS45 KLKN 241720
TAFELY
TAF
KELY 241720Z 2418/2518 22013G23KT P6SM VCTS OVC060CB
     FM242000 22014G24KT P6SM -TSRA OVC050CB
      TEMPO 2420/2424 VRB15G30KT 4SM -TSRA OVC030CB
     FM250200 30010KT P6SM VCSH SCT030 OVC050=



000
FTUS45 KLKN 241720
TAFWMC
TAF
KWMC 241720Z 2418/2518 29010G20KT P6SM -SHRA BKN035 OVC045
      TEMPO 2418/2420 2SM -SHRA OVC025
     FM242000 29012G22KT P6SM -SHRA SCT035 BKN050
     FM250600 VRB05KT P6SM -SHRA BKN030 OVC050
     FM251100 VRB06KT 4SM -RA OVC020=



000
FTUS45 KLKN 241720
TAFWMC
TAF
KWMC 241720Z 2418/2518 29010G20KT P6SM -SHRA BKN035 OVC045
      TEMPO 2418/2420 2SM -SHRA OVC025
     FM242000 29012G22KT P6SM -SHRA SCT035 BKN050
     FM250600 VRB05KT P6SM -SHRA BKN030 OVC050
     FM251100 VRB06KT 4SM -RA OVC020=



000
FTUS45 KLKN 241720
TAFELY
TAF
KELY 241720Z 2418/2518 22013G23KT P6SM VCTS OVC060CB
     FM242000 22014G24KT P6SM -TSRA OVC050CB
      TEMPO 2420/2424 VRB15G30KT 4SM -TSRA OVC030CB
     FM250200 30010KT P6SM VCSH SCT030 OVC050=



000
FTUS45 KLKN 241720
TAFTPH
TAF
KTPH 241720Z 2418/2518 VRB05KT P6SM SCT045
     FM242000 29015G25KT P6SM VCTS BKN050CB
     FM242300 32020G30KT P6SM BKN050
     FM250700 35009KT P6SM BKN070=



000
FTUS45 KLKN 241720
TAFTPH
TAF
KTPH 241720Z 2418/2518 VRB05KT P6SM SCT045
     FM242000 29015G25KT P6SM VCTS BKN050CB
     FM242300 32020G30KT P6SM BKN050
     FM250700 35009KT P6SM BKN070=



000
FTUS45 KLKN 241720
TAFTPH
TAF
KTPH 241720Z 2418/2518 VRB05KT P6SM SCT045
     FM242000 29015G25KT P6SM VCTS BKN050CB
     FM242300 32020G30KT P6SM BKN050
     FM250700 35009KT P6SM BKN070=



000
FTUS45 KLKN 241720
TAFWMC
TAF
KWMC 241720Z 2418/2518 29010G20KT P6SM -SHRA BKN035 OVC045
      TEMPO 2418/2420 2SM -SHRA OVC025
     FM242000 29012G22KT P6SM -SHRA SCT035 BKN050
     FM250600 VRB05KT P6SM -SHRA BKN030 OVC050
     FM251100 VRB06KT 4SM -RA OVC020=



000
FTUS45 KLKN 241720
TAFELY
TAF
KELY 241720Z 2418/2518 22013G23KT P6SM VCTS OVC060CB
     FM242000 22014G24KT P6SM -TSRA OVC050CB
      TEMPO 2420/2424 VRB15G30KT 4SM -TSRA OVC030CB
     FM250200 30010KT P6SM VCSH SCT030 OVC050=



000
FTUS45 KLKN 241720
TAFEKO
TAF
KEKO 241720Z 2418/2518 24012G22KT P6SM -SHRA BKN020 OVC035
     FM242000 28014G24KT P6SM -SHRA OVC030
      TEMPO 2420/2424 3SM -SHRA OVC020
     FM250200 VRB05KT P6SM -SHRA SCT025 OVC035
     FM251600 22008KT 4SM -RA OVC015=



000
FTUS45 KLKN 241720
TAFEKO
TAF
KEKO 241720Z 2418/2518 24012G22KT P6SM -SHRA BKN020 OVC035
     FM242000 28014G24KT P6SM -SHRA OVC030
      TEMPO 2420/2424 3SM -SHRA OVC020
     FM250200 VRB05KT P6SM -SHRA SCT025 OVC035
     FM251600 22008KT 4SM -RA OVC015=



000
FTUS45 KLKN 241720
TAFELY
TAF
KELY 241720Z 2418/2518 22013G23KT P6SM VCTS OVC060CB
     FM242000 22014G24KT P6SM -TSRA OVC050CB
      TEMPO 2420/2424 VRB15G30KT 4SM -TSRA OVC030CB
     FM250200 30010KT P6SM VCSH SCT030 OVC050=



000
FTUS45 KLKN 241720
TAFEKO
TAF
KEKO 241720Z 2418/2518 24012G22KT P6SM -SHRA BKN020 OVC035
     FM242000 28014G24KT P6SM -SHRA OVC030
      TEMPO 2420/2424 3SM -SHRA OVC020
     FM250200 VRB05KT P6SM -SHRA SCT025 OVC035
     FM251600 22008KT 4SM -RA OVC015=



000
FTUS45 KLKN 241720
TAFTPH
TAF
KTPH 241720Z 2418/2518 VRB05KT P6SM SCT045
     FM242000 29015G25KT P6SM VCTS BKN050CB
     FM242300 32020G30KT P6SM BKN050
     FM250700 35009KT P6SM BKN070=



000
FTUS45 KLKN 241720
TAFWMC
TAF
KWMC 241720Z 2418/2518 29010G20KT P6SM -SHRA BKN035 OVC045
      TEMPO 2418/2420 2SM -SHRA OVC025
     FM242000 29012G22KT P6SM -SHRA SCT035 BKN050
     FM250600 VRB05KT P6SM -SHRA BKN030 OVC050
     FM251100 VRB06KT 4SM -RA OVC020=



000
FTUS45 KLKN 241720
TAFEKO
TAF
KEKO 241720Z 2418/2518 24012G22KT P6SM -SHRA BKN020 OVC035
     FM242000 28014G24KT P6SM -SHRA OVC030
      TEMPO 2420/2424 3SM -SHRA OVC020
     FM250200 VRB05KT P6SM -SHRA SCT025 OVC035
     FM251600 22008KT 4SM -RA OVC015=



000
FTUS45 KLKN 241610 AAB
TAFWMC
TAF AMD
KWMC 241610Z 2416/2512 28010G20KT P6SM -SHRA OVC035
      TEMPO 2416/2418 2SM -SHRA OVC025
     FM250200 23009KT P6SM BKN050
     FM250500 19009KT P6SM VCSH SCT040 OVC060=



000
FTUS45 KLKN 241610 AAB
TAFWMC
TAF AMD
KWMC 241610Z 2416/2512 28010G20KT P6SM -SHRA OVC035
      TEMPO 2416/2418 2SM -SHRA OVC025
     FM250200 23009KT P6SM BKN050
     FM250500 19009KT P6SM VCSH SCT040 OVC060=



000
FTUS45 KLKN 241429 AAA
TAFWMC
TAF AMD
KWMC 241429Z 2414/2512 VRB05KT 6SM -RA OVC025
     FM241600 28010G20KT P6SM -SHRA SCT035 OVC040
     FM250200 23009KT P6SM BKN050
     FM250500 19009KT P6SM VCSH SCT040 OVC060=



000
FTUS45 KLKN 241429 AAA
TAFWMC
TAF AMD
KWMC 241429Z 2414/2512 VRB05KT 6SM -RA OVC025
     FM241600 28010G20KT P6SM -SHRA SCT035 OVC040
     FM250200 23009KT P6SM BKN050
     FM250500 19009KT P6SM VCSH SCT040 OVC060=



000
FTUS45 KLKN 241429 AAA
TAFWMC
TAF AMD
KWMC 241429Z 2414/2512 VRB05KT 6SM -RA OVC025
     FM241600 28010G20KT P6SM -SHRA SCT035 OVC040
     FM250200 23009KT P6SM BKN050
     FM250500 19009KT P6SM VCSH SCT040 OVC060=



000
FTUS45 KLKN 241120
TAFWMC
TAF
KWMC 241120Z 2412/2512 26009KT P6SM -RA OVC030
     FM241400 26010G20KT P6SM VCSH SCT030 OVC070
     FM250200 23009KT P6SM SCT050
     FM250500 19009KT P6SM VCSH SCT040 OVC060=



000
FTUS45 KLKN 241120
TAFEKO
TAF
KEKO 241120Z 2412/2512 19009KT P6SM VCSH OVC090
     FM241400 24009KT P6SM -RA OVC030
     FM242000 27010G20KT P6SM VCSH OVC050
     FM250500 22006KT P6SM SCT040 OVC070=



000
FTUS45 KLKN 241120
TAFEKO
TAF
KEKO 241120Z 2412/2512 19009KT P6SM VCSH OVC090
     FM241400 24009KT P6SM -RA OVC030
     FM242000 27010G20KT P6SM VCSH OVC050
     FM250500 22006KT P6SM SCT040 OVC070=



000
FTUS45 KLKN 241120
TAFTPH
TAF
KTPH 241120Z 2412/2512 35006KT P6SM SCT070 BKN200
     FM241400 35006KT P6SM VCSH SCT050 OVC070
     FM241700 27013G23KT P6SM VCTS SCT050CB OVC120
     FM242300 32017G27KT P6SM SCT070 OVC090
     FM250500 35009KT P6SM SCT070 OVC150=



000
FTUS45 KLKN 241120
TAFELY
TAF
KELY 241120Z 2412/2512 19009KT P6SM VCSH SCT040 OVC120
     FM241700 22013G23KT P6SM VCTS SCT050CB OVC120
     FM250500 22006KT P6SM VCSH SCT030 OVC090=



000
FTUS45 KLKN 241120
TAFEKO
TAF
KEKO 241120Z 2412/2512 19009KT P6SM VCSH OVC090
     FM241400 24009KT P6SM -RA OVC030
     FM242000 27010G20KT P6SM VCSH OVC050
     FM250500 22006KT P6SM SCT040 OVC070=



000
FTUS45 KLKN 241120
TAFWMC
TAF
KWMC 241120Z 2412/2512 26009KT P6SM -RA OVC030
     FM241400 26010G20KT P6SM VCSH SCT030 OVC070
     FM250200 23009KT P6SM SCT050
     FM250500 19009KT P6SM VCSH SCT040 OVC060=



000
FTUS45 KLKN 241120
TAFTPH
TAF
KTPH 241120Z 2412/2512 35006KT P6SM SCT070 BKN200
     FM241400 35006KT P6SM VCSH SCT050 OVC070
     FM241700 27013G23KT P6SM VCTS SCT050CB OVC120
     FM242300 32017G27KT P6SM SCT070 OVC090
     FM250500 35009KT P6SM SCT070 OVC150=



000
FTUS45 KLKN 241120
TAFELY
TAF
KELY 241120Z 2412/2512 19009KT P6SM VCSH SCT040 OVC120
     FM241700 22013G23KT P6SM VCTS SCT050CB OVC120
     FM250500 22006KT P6SM VCSH SCT030 OVC090=



000
FTUS45 KLKN 241120
TAFELY
TAF
KELY 241120Z 2412/2512 19009KT P6SM VCSH SCT040 OVC120
     FM241700 22013G23KT P6SM VCTS SCT050CB OVC120
     FM250500 22006KT P6SM VCSH SCT030 OVC090=



000
FTUS45 KLKN 241120
TAFTPH
TAF
KTPH 241120Z 2412/2512 35006KT P6SM SCT070 BKN200
     FM241400 35006KT P6SM VCSH SCT050 OVC070
     FM241700 27013G23KT P6SM VCTS SCT050CB OVC120
     FM242300 32017G27KT P6SM SCT070 OVC090
     FM250500 35009KT P6SM SCT070 OVC150=



000
FTUS45 KLKN 241120
TAFWMC
TAF
KWMC 241120Z 2412/2512 26009KT P6SM -RA OVC030
     FM241400 26010G20KT P6SM VCSH SCT030 OVC070
     FM250200 23009KT P6SM SCT050
     FM250500 19009KT P6SM VCSH SCT040 OVC060=



000
FTUS45 KLKN 240542
TAFELY
TAF
KELY 240542Z 2406/2506 19007KT P6SM SCT050 OVC090
     FM241100 19009KT P6SM VCSH SCT040 OVC120
     FM241700 22013G23KT P6SM VCTS SCT050CB OVC120
     FM250500 22006KT P6SM VCSH SCT030 OVC090=



000
FTUS45 KLKN 240542
TAFWMC
TAF
KWMC 240542Z 2406/2506 21010G20KT P6SM VCSH SCT090 OVC150
     FM240800 26009KT P6SM -RA OVC030
     FM241400 26010G20KT P6SM VCSH SCT030 OVC070
     FM250200 23009KT P6SM SCT050
     FM250500 19009KT P6SM VCSH SCT040 OVC060=



000
FTUS45 KLKN 240542
TAFEKO
TAF
KEKO 240542Z 2406/2506 VRB03KT P6SM SCT200
     FM241100 19009KT P6SM VCSH OVC090
     FM241400 24009KT P6SM -RA OVC030
     FM242000 27010G20KT P6SM VCSH OVC050
     FM250500 22006KT P6SM SCT040 OVC070=



000
FTUS45 KLKN 240542
TAFTPH
TAF
KTPH 240542Z 2406/2506 35006KT P6SM SCT070 BKN200
     FM241400 35006KT P6SM VCSH SCT050 OVC070
     FM241700 27013G23KT P6SM VCTS SCT050CB OVC120
     FM242300 32017G27KT P6SM SCT070 OVC090
     FM250500 35009KT P6SM SCT070 OVC150=



000
FTUS45 KLKN 240542
TAFWMC
TAF
KWMC 240542Z 2406/2506 21010G20KT P6SM VCSH SCT090 OVC150
     FM240800 26009KT P6SM -RA OVC030
     FM241400 26010G20KT P6SM VCSH SCT030 OVC070
     FM250200 23009KT P6SM SCT050
     FM250500 19009KT P6SM VCSH SCT040 OVC060=



000
FTUS45 KLKN 240542
TAFELY
TAF
KELY 240542Z 2406/2506 19007KT P6SM SCT050 OVC090
     FM241100 19009KT P6SM VCSH SCT040 OVC120
     FM241700 22013G23KT P6SM VCTS SCT050CB OVC120
     FM250500 22006KT P6SM VCSH SCT030 OVC090=



000
FTUS45 KLKN 240542
TAFTPH
TAF
KTPH 240542Z 2406/2506 35006KT P6SM SCT070 BKN200
     FM241400 35006KT P6SM VCSH SCT050 OVC070
     FM241700 27013G23KT P6SM VCTS SCT050CB OVC120
     FM242300 32017G27KT P6SM SCT070 OVC090
     FM250500 35009KT P6SM SCT070 OVC150=



000
FTUS45 KLKN 240542
TAFEKO
TAF
KEKO 240542Z 2406/2506 VRB03KT P6SM SCT200
     FM241100 19009KT P6SM VCSH OVC090
     FM241400 24009KT P6SM -RA OVC030
     FM242000 27010G20KT P6SM VCSH OVC050
     FM250500 22006KT P6SM SCT040 OVC070=



000
FTUS45 KLKN 240318 AAB
TAFEKO
TAF AMD
KEKO 240318Z 2403/2424 VRB05KT P6SM SCT100
     FM241600 24010G20KT P6SM -RA OVC030=



000
FTUS45 KLKN 240318 AAB
TAFEKO
TAF AMD
KEKO 240318Z 2403/2424 VRB05KT P6SM SCT100
     FM241600 24010G20KT P6SM -RA OVC030=



000
FTUS45 KLKN 240318 AAB
TAFEKO
TAF AMD
KEKO 240318Z 2403/2424 VRB05KT P6SM SCT100
     FM241600 24010G20KT P6SM -RA OVC030=



000
FTUS45 KLKN 240318 AAB
TAFEKO
TAF AMD
KEKO 240318Z 2403/2424 VRB05KT P6SM SCT100
     FM241600 24010G20KT P6SM -RA OVC030=



000
FTUS45 KLKN 240248 AAA
TAFTPH
TAF AMD
KTPH 240248Z 2403/2424 32013G22KT P6SM FEW120 BKN200
     FM240600 33008KT P6SM SCT070
     FM241800 26015G25KT P6SM SCT080 BKN250=



000
FTUS45 KLKN 240246 AAA
TAFEKO
TAF AMD
KEKO 240246Z 2403/2424 16012G20KT P6SM VCSH BKN060
     FM240500 VRB05KT P6SM FEW080 BKN200
     FM241200 VRB05KT P6SM BKN050 OVC070
     FM241600 24010G20KT P6SM -RA OVC030=



000
FTUS45 KLKN 240246 AAA
TAFEKO
TAF AMD
KEKO 240246Z 2403/2424 16012G20KT P6SM VCSH BKN060
     FM240500 VRB05KT P6SM FEW080 BKN200
     FM241200 VRB05KT P6SM BKN050 OVC070
     FM241600 24010G20KT P6SM -RA OVC030=



000
FTUS45 KLKN 240246 AAA
TAFEKO
TAF AMD
KEKO 240246Z 2403/2424 16012G20KT P6SM VCSH BKN060
     FM240500 VRB05KT P6SM FEW080 BKN200
     FM241200 VRB05KT P6SM BKN050 OVC070
     FM241600 24010G20KT P6SM -RA OVC030=



000
FTUS45 KLKN 232335
TAFTPH
TAF
KTPH 232335Z 2400/2424 32010KT P6SM BKN080
     FM240500 33006KT P6SM SCT070
     FM241800 26015G25KT P6SM SCT080 BKN250=



000
FTUS45 KLKN 232335
TAFWMC
TAF
KWMC 232335Z 2400/2424 25008KT P6SM SKC
     FM240500 VRB05KT P6SM VCSH SCT050 BKN070
     FM241100 VRB04KT P6SM -RA OVC030
     FM241700 27013G23KT P6SM -SHRA OVC035=



000
FTUS45 KLKN 232335
TAFELY
TAF
KELY 232335Z 2400/2424 17010KT P6SM BKN070
     FM241500 18014G21KT P6SM OVC250
     FM242000 22015G25KT P6SM VCTS BKN050CB=



000
FTUS45 KLKN 232335
TAFEKO
TAF
KEKO 232335Z 2400/2424 17015G25KT P6SM VCTS BKN050CB
      TEMPO 2400/2402 VRB15G35KT -TSRA BKN050CB
     FM240200 25004KT P6SM SCT050
     FM241200 VRB05KT P6SM BKN050 OVC070
     FM241600 24010G20KT P6SM -RA OVC030=



000
FTUS45 KLKN 232335
TAFEKO
TAF
KEKO 232335Z 2400/2424 17015G25KT P6SM VCTS BKN050CB
      TEMPO 2400/2402 VRB15G35KT -TSRA BKN050CB
     FM240200 25004KT P6SM SCT050
     FM241200 VRB05KT P6SM BKN050 OVC070
     FM241600 24010G20KT P6SM -RA OVC030=



000
FTUS45 KLKN 232335
TAFEKO
TAF
KEKO 232335Z 2400/2424 17015G25KT P6SM VCTS BKN050CB
      TEMPO 2400/2402 VRB15G35KT -TSRA BKN050CB
     FM240200 25004KT P6SM SCT050
     FM241200 VRB05KT P6SM BKN050 OVC070
     FM241600 24010G20KT P6SM -RA OVC030=



000
FTUS45 KLKN 232335
TAFELY
TAF
KELY 232335Z 2400/2424 17010KT P6SM BKN070
     FM241500 18014G21KT P6SM OVC250
     FM242000 22015G25KT P6SM VCTS BKN050CB=



000
FTUS45 KLKN 232335
TAFELY
TAF
KELY 232335Z 2400/2424 17010KT P6SM BKN070
     FM241500 18014G21KT P6SM OVC250
     FM242000 22015G25KT P6SM VCTS BKN050CB=



000
FTUS45 KLKN 232335
TAFWMC
TAF
KWMC 232335Z 2400/2424 25008KT P6SM SKC
     FM240500 VRB05KT P6SM VCSH SCT050 BKN070
     FM241100 VRB04KT P6SM -RA OVC030
     FM241700 27013G23KT P6SM -SHRA OVC035=



000
FTUS45 KLKN 232335
TAFTPH
TAF
KTPH 232335Z 2400/2424 32010KT P6SM BKN080
     FM240500 33006KT P6SM SCT070
     FM241800 26015G25KT P6SM SCT080 BKN250=



000
FTUS45 KLKN 232335
TAFTPH
TAF
KTPH 232335Z 2400/2424 32010KT P6SM BKN080
     FM240500 33006KT P6SM SCT070
     FM241800 26015G25KT P6SM SCT080 BKN250=



000
FTUS45 KLKN 232335
TAFEKO
TAF
KEKO 232335Z 2400/2424 17015G25KT P6SM VCTS BKN050CB
      TEMPO 2400/2402 VRB15G35KT -TSRA BKN050CB
     FM240200 25004KT P6SM SCT050
     FM241200 VRB05KT P6SM BKN050 OVC070
     FM241600 24010G20KT P6SM -RA OVC030=



000
FTUS45 KLKN 232335
TAFELY
TAF
KELY 232335Z 2400/2424 17010KT P6SM BKN070
     FM241500 18014G21KT P6SM OVC250
     FM242000 22015G25KT P6SM VCTS BKN050CB=



000
FTUS45 KLKN 232335
TAFWMC
TAF
KWMC 232335Z 2400/2424 25008KT P6SM SKC
     FM240500 VRB05KT P6SM VCSH SCT050 BKN070
     FM241100 VRB04KT P6SM -RA OVC030
     FM241700 27013G23KT P6SM -SHRA OVC035=



000
FTUS45 KLKN 232335
TAFWMC
TAF
KWMC 232335Z 2400/2424 25008KT P6SM SKC
     FM240500 VRB05KT P6SM VCSH SCT050 BKN070
     FM241100 VRB04KT P6SM -RA OVC030
     FM241700 27013G23KT P6SM -SHRA OVC035=



000
FTUS45 KLKN 232335
TAFTPH
TAF
KTPH 232335Z 2400/2424 32010KT P6SM BKN080
     FM240500 33006KT P6SM SCT070
     FM241800 26015G25KT P6SM SCT080 BKN250=



000
FTUS45 KLKN 232025 AAA
TAFEKO
TAF AMD
KEKO 232025Z 2320/2418 25008KT P6SM VCTS BKN050CB
      TEMPO 2320/2324 VRB15G30KT
     FM240200 25004KT P6SM SCT050
     FM241200 VRB05KT P6SM BKN050 OVC070
     FM241500 19010G20KT P6SM -RA OVC030=



000
FTUS45 KLKN 232025 AAA
TAFEKO
TAF AMD
KEKO 232025Z 2320/2418 25008KT P6SM VCTS BKN050CB
      TEMPO 2320/2324 VRB15G30KT
     FM240200 25004KT P6SM SCT050
     FM241200 VRB05KT P6SM BKN050 OVC070
     FM241500 19010G20KT P6SM -RA OVC030=



    US Dept of Commerce
    National Oceanic and Atmospheric Administration
    National Weather Service
    1325 East West Highway
    Silver Spring, MD 20910
    Page Author: NWS Internet Services Team
Disclaimer
Information Quality
Credits
Glossary
Privacy Policy
Freedom of Information Act (FOIA)
About Us
Career Opportunities